sensor_id;sensor_type;location;lat;lon;timestamp;pressure;altitude;pressure_sealevel;temperature;humidity
11830;BME280;5972;42.134;24.718;2023-08-30T00:01:59;98471.38;;;23.75;100.00
11830;BME280;5972;42.134;24.718;2023-08-30T00:04:26;98467.88;;;23.83;100.00
11830;BME280;5972;42.134;24.718;2023-08-30T00:06:53;98464.94;;;23.78;100.00
11830;BME280;5972;42.134;24.718;2023-08-30T00:09:20;98463.53;;;23.55;100.00
11830;BME280;5972;42.134;24.718;2023-08-30T00:11:47;98461.50;;;23.46;100.00
11830;BME280;5972;42.134;24.718;2023-08-30T00:14:13;98463.91;;;23.04;100.00
11830;BME280;5972;42.134;24.718;2023-08-30T00:16:41;98460.72;;;23.06;100.00
11830;BME280;5972;42.134;24.718;2023-08-30T00:19:08;98461.84;;;22.87;100.00
11830;BME280;5972;42.134;24.718;2023-08-30T00:21:35;98462.09;;;23.01;100.00
11830;BME280;5972;42.134;24.718;2023-08-30T00:24:02;98461.38;;;23.19;100.00
11830;BME280;5972;42.134;24.718;2023-08-30T00:26:29;98467.81;;;23.16;100.00
11830;BME280;5972;42.134;24.718;2023-08-30T00:28:55;98465.41;;;22.96;100.00
11830;BME280;5972;42.134;24.718;2023-08-30T00:31:22;98467.63;;;23.10;100.00
11830;BME280;5972;42.134;24.718;2023-08-30T00:33:50;98464.31;;;23.25;100.00
11830;BME280;5972;42.134;24.718;2023-08-30T00:36:17;98463.72;;;23.30;100.00
11830;BME280;5972;42.134;24.718;2023-08-30T00:38:44;98468.25;;;23.14;100.00
11830;BME280;5972;42.134;24.718;2023-08-30T00:41:11;98476.22;;;23.12;100.00
11830;BME280;5972;42.134;24.718;2023-08-30T00:43:39;98477.75;;;23.13;100.00
11830;BME280;5972;42.134;24.718;2023-08-30T00:46:05;98480.81;;;23.06;100.00
11830;BME280;5972;42.134;24.718;2023-08-30T00:48:32;98476.22;;;23.12;100.00
11830;BME280;5972;42.134;24.718;2023-08-30T00:51:00;98472.47;;;22.97;100.00
11830;BME280;5972;42.134;24.718;2023-08-30T00:53:27;98475.28;;;23.06;100.00
11830;BME280;5972;42.134;24.718;2023-08-30T00:55:54;98472.34;;;23.01;100.00
11830;BME280;5972;42.134;24.718;2023-08-30T00:58:21;98472.56;;;22.85;100.00
11830;BME280;5972;42.134;24.718;2023-08-30T01:00:48;98473.97;;;22.67;100.00
11830;BME280;5972;42.134;24.718;2023-08-30T01:03:16;98468.78;;;22.48;100.00
11830;BME280;5972;42.134;24.718;2023-08-30T01:05:42;98469.59;;;22.57;100.00
11830;BME280;5972;42.134;24.718;2023-08-30T01:08:11;98476.34;;;22.34;100.00
11830;BME280;5972;42.134;24.718;2023-08-30T01:10:47;98477.75;;;22.17;100.00
11830;BME280;5972;42.134;24.718;2023-08-30T01:13:19;98475.09;;;22.14;100.00
11830;BME280;5972;42.134;24.718;2023-08-30T01:15:47;98483.81;;;22.12;100.00
11830;BME280;5972;42.134;24.718;2023-08-30T01:18:17;98481.16;;;22.09;100.00
11830;BME280;5972;42.134;24.718;2023-08-30T01:20:44;98488.25;;;22.31;100.00
11830;BME280;5972;42.134;24.718;2023-08-30T01:23:24;98491.59;;;22.48;100.00
11830;BME280;5972;42.134;24.718;2023-08-30T01:25:57;98485.09;;;22.20;100.00
11830;BME280;5972;42.134;24.718;2023-08-30T01:28:31;98486.03;;;22.05;100.00
11830;BME280;5972;42.134;24.718;2023-08-30T01:31:00;98485.84;;;21.86;100.00
11830;BME280;5972;42.134;24.718;2023-08-30T01:33:27;98496.97;;;21.83;100.00
11830;BME280;5972;42.134;24.718;2023-08-30T01:35:55;98510.66;;;21.61;100.00
11830;BME280;5972;42.134;24.718;2023-08-30T01:38:23;98512.97;;;21.63;100.00
11830;BME280;5972;42.134;24.718;2023-08-30T01:40:52;98508.13;;;21.54;100.00
11830;BME280;5972;42.134;24.718;2023-08-30T01:43:20;98510.44;;;21.55;100.00
11830;BME280;5972;42.134;24.718;2023-08-30T01:45:49;98508.22;;;21.63;100.00
11830;BME280;5972;42.134;24.718;2023-08-30T01:48:17;98505.38;;;21.67;100.00
11830;BME280;5972;42.134;24.718;2023-08-30T01:50:45;98500.94;;;21.69;100.00
11830;BME280;5972;42.134;24.718;2023-08-30T01:53:13;98511.31;;;21.52;100.00
11830;BME280;5972;42.134;24.718;2023-08-30T01:55:40;98517.50;;;21.56;100.00
11830;BME280;5972;42.134;24.718;2023-08-30T01:58:07;98518.16;;;21.73;100.00
11830;BME280;5972;42.134;24.718;2023-08-30T02:00:35;98518.16;;;21.48;100.00
11830;BME280;5972;42.134;24.718;2023-08-30T02:03:08;98525.09;;;21.27;100.00
11830;BME280;5972;42.134;24.718;2023-08-30T02:05:37;98523.13;;;21.28;100.00
11830;BME280;5972;42.134;24.718;2023-08-30T02:08:11;98523.56;;;21.39;100.00
11830;BME280;5972;42.134;24.718;2023-08-30T02:10:41;98517.16;;;21.42;100.00
11830;BME280;5972;42.134;24.718;2023-08-30T02:13:12;98516.72;;;21.31;100.00
11830;BME280;5972;42.134;24.718;2023-08-30T02:15:41;98496.91;;;21.36;100.00
11830;BME280;5972;42.134;24.718;2023-08-30T02:18:10;98516.28;;;21.20;100.00
11830;BME280;5972;42.134;24.718;2023-08-30T02:20:37;98507.16;;;21.23;100.00
11830;BME280;5972;42.134;24.718;2023-08-30T02:23:04;98507.88;;;21.10;100.00
11830;BME280;5972;42.134;24.718;2023-08-30T02:25:31;98499.63;;;21.10;100.00
11830;BME280;5972;42.134;24.718;2023-08-30T02:27:57;98498.56;;;21.33;100.00
11830;BME280;5972;42.134;24.718;2023-08-30T02:30:24;98495.69;;;21.49;100.00
11830;BME280;5972;42.134;24.718;2023-08-30T02:32:51;98497.44;;;21.69;100.00
11830;BME280;5972;42.134;24.718;2023-08-30T02:35:19;98499.28;;;21.84;100.00
11830;BME280;5972;42.134;24.718;2023-08-30T02:37:46;98506.09;;;21.92;100.00
11830;BME280;5972;42.134;24.718;2023-08-30T02:40:13;98502.22;;;22.03;100.00
11830;BME280;5972;42.134;24.718;2023-08-30T02:42:39;98504.88;;;22.06;100.00
11830;BME280;5972;42.134;24.718;2023-08-30T02:45:07;98496.94;;;22.08;100.00
11830;BME280;5972;42.134;24.718;2023-08-30T02:47:34;98498.81;;;22.11;100.00
11830;BME280;5972;42.134;24.718;2023-08-30T02:50:01;98520.28;;;22.16;100.00
11830;BME280;5972;42.134;24.718;2023-08-30T02:52:29;98518.72;;;22.15;100.00
11830;BME280;5972;42.134;24.718;2023-08-30T02:54:56;98518.88;;;22.12;100.00
11830;BME280;5972;42.134;24.718;2023-08-30T02:57:22;98520.50;;;22.09;100.00
11830;BME280;5972;42.134;24.718;2023-08-30T02:59:49;98505.53;;;22.10;100.00
11830;BME280;5972;42.134;24.718;2023-08-30T03:02:16;98526.22;;;22.15;100.00
11830;BME280;5972;42.134;24.718;2023-08-30T03:04:43;98513.59;;;22.05;100.00
11830;BME280;5972;42.134;24.718;2023-08-30T03:07:10;98521.50;;;22.03;100.00
11830;BME280;5972;42.134;24.718;2023-08-30T03:09:38;98523.06;;;22.04;100.00
11830;BME280;5972;42.134;24.718;2023-08-30T03:12:06;98523.63;;;21.86;100.00
11830;BME280;5972;42.134;24.718;2023-08-30T03:14:33;98528.03;;;21.96;100.00
11830;BME280;5972;42.134;24.718;2023-08-30T03:17:00;98530.59;;;21.78;100.00
11830;BME280;5972;42.134;24.718;2023-08-30T03:19:26;98538.50;;;21.76;100.00
11830;BME280;5972;42.134;24.718;2023-08-30T03:21:53;98537.09;;;21.58;100.00
11830;BME280;5972;42.134;24.718;2023-08-30T03:24:20;98540.25;;;21.82;100.00
11830;BME280;5972;42.134;24.718;2023-08-30T03:26:48;98543.03;;;21.70;100.00
11830;BME280;5972;42.134;24.718;2023-08-30T03:29:14;98546.75;;;21.76;100.00
11830;BME280;5972;42.134;24.718;2023-08-30T03:31:41;98551.50;;;21.75;100.00
11830;BME280;5972;42.134;24.718;2023-08-30T03:34:08;98547.44;;;21.54;100.00
11830;BME280;5972;42.134;24.718;2023-08-30T03:36:35;98552.28;;;21.50;100.00
11830;BME280;5972;42.134;24.718;2023-08-30T03:39:02;98559.66;;;21.53;100.00
11830;BME280;5972;42.134;24.718;2023-08-30T03:41:29;98550.75;;;21.62;100.00
11830;BME280;5972;42.134;24.718;2023-08-30T03:43:57;98556.44;;;21.93;100.00
11830;BME280;5972;42.134;24.718;2023-08-30T03:46:24;98558.00;;;22.07;100.00
11830;BME280;5972;42.134;24.718;2023-08-30T03:48:50;98558.53;;;22.02;100.00
11830;BME280;5972;42.134;24.718;2023-08-30T03:51:17;98558.22;;;22.12;100.00
11830;BME280;5972;42.134;24.718;2023-08-30T03:53:45;98552.53;;;22.28;100.00
11830;BME280;5972;42.134;24.718;2023-08-30T03:56:11;98550.88;;;22.53;100.00
11830;BME280;5972;42.134;24.718;2023-08-30T03:58:39;98565.34;;;22.57;100.00
11830;BME280;5972;42.134;24.718;2023-08-30T04:01:07;98570.00;;;22.47;100.00
11830;BME280;5972;42.134;24.718;2023-08-30T04:03:33;98573.94;;;22.46;100.00
11830;BME280;5972;42.134;24.718;2023-08-30T04:06:00;98579.22;;;22.53;100.00
11830;BME280;5972;42.134;24.718;2023-08-30T04:08:27;98582.81;;;22.75;100.00
11830;BME280;5972;42.134;24.718;2023-08-30T04:10:54;98583.72;;;22.72;100.00
11830;BME280;5972;42.134;24.718;2023-08-30T04:13:21;98590.50;;;22.80;100.00
11830;BME280;5972;42.134;24.718;2023-08-30T04:15:48;98585.97;;;22.87;100.00
11830;BME280;5972;42.134;24.718;2023-08-30T04:18:16;98569.59;;;23.14;100.00
11830;BME280;5972;42.134;24.718;2023-08-30T04:20:44;98580.00;;;23.41;100.00
11830;BME280;5972;42.134;24.718;2023-08-30T04:23:11;98577.97;;;23.63;100.00
11830;BME280;5972;42.134;24.718;2023-08-30T04:25:38;98579.34;;;23.58;100.00
11830;BME280;5972;42.134;24.718;2023-08-30T04:28:05;98580.69;;;23.85;100.00
11830;BME280;5972;42.134;24.718;2023-08-30T04:30:31;98582.50;;;23.79;100.00
11830;BME280;5972;42.134;24.718;2023-08-30T04:32:58;98585.03;;;23.64;100.00
11830;BME280;5972;42.134;24.718;2023-08-30T04:35:29;98575.78;;;23.98;100.00
11830;BME280;5972;42.134;24.718;2023-08-30T04:37:56;98576.19;;;24.36;100.00
11830;BME280;5972;42.134;24.718;2023-08-30T04:40:23;98586.69;;;24.78;100.00
11830;BME280;5972;42.134;24.718;2023-08-30T04:42:49;98585.59;;;25.03;100.00
11830;BME280;5972;42.134;24.718;2023-08-30T04:45:16;98587.56;;;25.20;100.00
11830;BME280;5972;42.134;24.718;2023-08-30T04:47:43;98588.44;;;25.45;100.00
11830;BME280;5972;42.134;24.718;2023-08-30T04:50:11;98586.22;;;25.58;100.00
11830;BME280;5972;42.134;24.718;2023-08-30T04:52:39;98595.88;;;25.72;100.00
11830;BME280;5972;42.134;24.718;2023-08-30T04:55:07;98592.91;;;25.84;100.00
11830;BME280;5972;42.134;24.718;2023-08-30T04:57:34;98592.66;;;26.06;100.00
11830;BME280;5972;42.134;24.718;2023-08-30T05:00:01;98590.50;;;26.34;100.00
11830;BME280;5972;42.134;24.718;2023-08-30T05:02:30;98589.22;;;26.11;100.00
11830;BME280;5972;42.134;24.718;2023-08-30T05:04:58;98595.94;;;26.28;100.00
11830;BME280;5972;42.134;24.718;2023-08-30T05:07:25;98584.81;;;26.52;100.00
11830;BME280;5972;42.134;24.718;2023-08-30T05:09:53;98579.84;;;26.08;100.00
11830;BME280;5972;42.134;24.718;2023-08-30T05:12:20;98592.59;;;25.91;100.00
11830;BME280;5972;42.134;24.718;2023-08-30T05:14:47;98592.53;;;26.00;100.00
11830;BME280;5972;42.134;24.718;2023-08-30T05:17:14;98591.25;;;25.26;100.00
11830;BME280;5972;42.134;24.718;2023-08-30T05:19:41;98602.78;;;25.85;100.00
11830;BME280;5972;42.134;24.718;2023-08-30T05:22:07;98602.97;;;26.53;100.00
11830;BME280;5972;42.134;24.718;2023-08-30T05:24:34;98601.34;;;26.85;100.00
11830;BME280;5972;42.134;24.718;2023-08-30T05:27:02;98603.38;;;27.52;96.04
11830;BME280;5972;42.134;24.718;2023-08-30T05:29:29;98600.94;;;26.77;100.00
11830;BME280;5972;42.134;24.718;2023-08-30T05:31:56;98603.50;;;27.78;94.33
11830;BME280;5972;42.134;24.718;2023-08-30T05:34:23;98605.38;;;28.57;87.84
11830;BME280;5972;42.134;24.718;2023-08-30T05:36:52;98620.75;;;29.18;80.90
11830;BME280;5972;42.134;24.718;2023-08-30T05:39:19;98607.69;;;28.03;90.18
11830;BME280;5972;42.134;24.718;2023-08-30T05:41:45;98613.25;;;28.03;89.72
11830;BME280;5972;42.134;24.718;2023-08-30T05:44:14;98619.75;;;28.55;85.87
11830;BME280;5972;42.134;24.718;2023-08-30T05:46:40;98613.47;;;30.21;72.29
11830;BME280;5972;42.134;24.718;2023-08-30T05:49:07;98620.16;;;29.09;76.59
11830;BME280;5972;42.134;24.718;2023-08-30T05:51:34;98626.69;;;27.02;94.69
11830;BME280;5972;42.134;24.718;2023-08-30T05:54:01;98626.50;;;27.49;94.93
11830;BME280;5972;42.134;24.718;2023-08-30T05:56:27;98629.38;;;28.94;82.08
11830;BME280;5972;42.134;24.718;2023-08-30T05:58:54;98643.50;;;30.37;70.55
11830;BME280;5972;42.134;24.718;2023-08-30T06:01:22;98637.84;;;29.89;71.06
11830;BME280;5972;42.134;24.718;2023-08-30T06:03:50;98629.84;;;29.39;75.74
11830;BME280;5972;42.134;24.718;2023-08-30T06:06:17;98621.53;;;27.39;91.58
11830;BME280;5972;42.134;24.718;2023-08-30T06:08:43;98642.38;;;26.81;99.46
11830;BME280;5972;42.134;24.718;2023-08-30T06:11:10;98635.75;;;26.87;100.00
11830;BME280;5972;42.134;24.718;2023-08-30T06:13:37;98633.03;;;26.55;100.00
11830;BME280;5972;42.134;24.718;2023-08-30T06:16:04;98639.47;;;26.04;100.00
11830;BME280;5972;42.134;24.718;2023-08-30T06:18:32;98635.66;;;26.34;100.00
11830;BME280;5972;42.134;24.718;2023-08-30T06:20:59;98630.34;;;27.08;100.00
11830;BME280;5972;42.134;24.718;2023-08-30T06:23:25;98641.28;;;27.70;97.18
11830;BME280;5972;42.134;24.718;2023-08-30T06:25:56;98632.84;;;29.36;83.41
11830;BME280;5972;42.134;24.718;2023-08-30T06:28:23;98646.00;;;30.83;67.97
11830;BME280;5972;42.134;24.718;2023-08-30T06:30:50;98655.97;;;30.95;65.32
11830;BME280;5972;42.134;24.718;2023-08-30T06:33:17;98648.47;;;31.46;64.06
11830;BME280;5972;42.134;24.718;2023-08-30T06:35:47;98644.69;;;31.93;59.30
11830;BME280;5972;42.134;24.718;2023-08-30T06:38:14;98646.19;;;31.94;61.76
11830;BME280;5972;42.134;24.718;2023-08-30T06:40:43;98646.06;;;32.55;56.63
11830;BME280;5972;42.134;24.718;2023-08-30T06:43:11;98644.72;;;33.31;51.38
11830;BME280;5972;42.134;24.718;2023-08-30T06:45:38;98648.28;;;33.67;49.98
11830;BME280;5972;42.134;24.718;2023-08-30T06:48:06;98646.72;;;33.77;50.83
11830;BME280;5972;42.134;24.718;2023-08-30T06:50:33;98661.34;;;34.91;46.03
11830;BME280;5972;42.134;24.718;2023-08-30T06:53:01;98664.97;;;34.43;47.22
11830;BME280;5972;42.134;24.718;2023-08-30T06:55:28;98658.97;;;34.52;46.46
11830;BME280;5972;42.134;24.718;2023-08-30T06:57:55;98663.50;;;34.07;47.88
11830;BME280;5972;42.134;24.718;2023-08-30T07:00:22;98667.75;;;33.13;50.66
11830;BME280;5972;42.134;24.718;2023-08-30T07:02:48;98656.34;;;33.46;48.79
11830;BME280;5972;42.134;24.718;2023-08-30T07:05:15;98650.75;;;33.46;49.27
11830;BME280;5972;42.134;24.718;2023-08-30T07:07:42;98662.91;;;33.13;50.04
11830;BME280;5972;42.134;24.718;2023-08-30T07:10:10;98669.69;;;33.34;50.03
11830;BME280;5972;42.134;24.718;2023-08-30T07:12:37;98659.91;;;31.42;55.86
11830;BME280;5972;42.134;24.718;2023-08-30T07:15:05;98666.06;;;31.68;57.51
11830;BME280;5972;42.134;24.718;2023-08-30T07:17:32;98669.03;;;31.26;59.55
11830;BME280;5972;42.134;24.718;2023-08-30T07:19:59;98665.09;;;30.42;62.43
11830;BME280;5972;42.134;24.718;2023-08-30T07:22:26;98668.28;;;31.31;59.10
11830;BME280;5972;42.134;24.718;2023-08-30T07:24:53;98663.69;;;31.39;57.40
11830;BME280;5972;42.134;24.718;2023-08-30T07:27:21;98664.97;;;31.49;57.19
11830;BME280;5972;42.134;24.718;2023-08-30T07:29:48;98668.06;;;32.07;55.19
11830;BME280;5972;42.134;24.718;2023-08-30T07:32:14;98660.06;;;32.55;54.15
11830;BME280;5972;42.134;24.718;2023-08-30T07:34:41;98659.28;;;32.60;51.65
11830;BME280;5972;42.134;24.718;2023-08-30T07:37:17;98656.00;;;32.56;51.64
11830;BME280;5972;42.134;24.718;2023-08-30T07:39:44;98655.00;;;32.65;51.23
11830;BME280;5972;42.134;24.718;2023-08-30T07:42:11;98656.31;;;32.47;52.62
11830;BME280;5972;42.134;24.718;2023-08-30T07:44:39;98653.25;;;32.45;52.66
11830;BME280;5972;42.134;24.718;2023-08-30T07:47:06;98658.84;;;32.45;54.04
11830;BME280;5972;42.134;24.718;2023-08-30T07:49:33;98656.91;;;31.62;56.74
11830;BME280;5972;42.134;24.718;2023-08-30T07:51:59;98653.00;;;30.56;64.85
11830;BME280;5972;42.134;24.718;2023-08-30T07:54:26;98640.69;;;30.31;65.02
11830;BME280;5972;42.134;24.718;2023-08-30T07:56:53;98655.44;;;30.43;65.95
11830;BME280;5972;42.134;24.718;2023-08-30T07:59:20;98659.56;;;29.79;67.92
11830;BME280;5972;42.134;24.718;2023-08-30T08:01:48;98658.03;;;30.09;69.68
11830;BME280;5972;42.134;24.718;2023-08-30T08:04:14;98660.50;;;30.81;66.26
11830;BME280;5972;42.134;24.718;2023-08-30T08:06:41;98658.88;;;31.51;59.88
11830;BME280;5972;42.134;24.718;2023-08-30T08:09:08;98651.28;;;31.96;54.59
11830;BME280;5972;42.134;24.718;2023-08-30T08:11:35;98660.53;;;30.87;64.41
11830;BME280;5972;42.134;24.718;2023-08-30T08:14:01;98649.59;;;30.35;68.88
11830;BME280;5972;42.134;24.718;2023-08-30T08:16:29;98650.81;;;30.82;64.60
11830;BME280;5972;42.134;24.718;2023-08-30T08:18:57;98647.66;;;30.10;68.34
11830;BME280;5972;42.134;24.718;2023-08-30T08:21:24;98638.94;;;29.97;70.21
11830;BME280;5972;42.134;24.718;2023-08-30T08:23:51;98643.38;;;31.44;60.26
11830;BME280;5972;42.134;24.718;2023-08-30T08:26:18;98639.81;;;31.55;56.71
11830;BME280;5972;42.134;24.718;2023-08-30T08:28:45;98636.78;;;32.25;55.50
11830;BME280;5972;42.134;24.718;2023-08-30T08:31:11;98642.41;;;31.92;56.21
11830;BME280;5972;42.134;24.718;2023-08-30T08:33:39;98634.78;;;31.81;56.17
11830;BME280;5972;42.134;24.718;2023-08-30T08:36:07;98641.09;;;32.32;53.14
11830;BME280;5972;42.134;24.718;2023-08-30T08:38:34;98640.38;;;31.87;54.37
11830;BME280;5972;42.134;24.718;2023-08-30T08:41:02;98621.38;;;32.65;53.04
11830;BME280;5972;42.134;24.718;2023-08-30T08:43:32;98624.72;;;33.46;50.23
11830;BME280;5972;42.134;24.718;2023-08-30T08:46:00;98618.78;;;33.60;46.91
11830;BME280;5972;42.134;24.718;2023-08-30T08:48:28;98609.59;;;33.90;45.88
11830;BME280;5972;42.134;24.718;2023-08-30T08:50:56;98614.69;;;33.91;44.89
11830;BME280;5972;42.134;24.718;2023-08-30T08:53:24;98613.00;;;34.31;44.27
11830;BME280;5972;42.134;24.718;2023-08-30T08:55:52;98615.25;;;34.57;44.20
11830;BME280;5972;42.134;24.718;2023-08-30T08:58:19;98615.97;;;33.90;45.46
11830;BME280;5972;42.134;24.718;2023-08-30T09:00:46;98602.75;;;33.85;45.38
11830;BME280;5972;42.134;24.718;2023-08-30T09:03:13;98607.22;;;33.99;44.49
11830;BME280;5972;42.134;24.718;2023-08-30T09:05:40;98610.91;;;32.71;46.96
11830;BME280;5972;42.134;24.718;2023-08-30T09:08:10;98608.75;;;32.31;50.01
11830;BME280;5972;42.134;24.718;2023-08-30T09:10:40;98612.84;;;31.07;54.17
11830;BME280;5972;42.134;24.718;2023-08-30T09:13:06;98604.00;;;31.48;54.69
11830;BME280;5972;42.134;24.718;2023-08-30T09:15:33;98599.38;;;32.06;52.26
11830;BME280;5972;42.134;24.718;2023-08-30T09:18:02;98602.72;;;31.88;52.26
11830;BME280;5972;42.134;24.718;2023-08-30T09:20:29;98588.06;;;32.50;49.36
11830;BME280;5972;42.134;24.718;2023-08-30T09:22:56;98599.03;;;33.41;47.54
11830;BME280;5972;42.134;24.718;2023-08-30T09:25:24;98598.72;;;33.45;45.94
11830;BME280;5972;42.134;24.718;2023-08-30T09:27:57;98590.78;;;32.73;47.06
11830;BME280;5972;42.134;24.718;2023-08-30T09:30:24;98589.53;;;32.63;48.96
11830;BME280;5972;42.134;24.718;2023-08-30T09:32:51;98581.13;;;32.68;48.84
11830;BME280;5972;42.134;24.718;2023-08-30T09:35:18;98574.84;;;32.45;50.81
11830;BME280;5972;42.134;24.718;2023-08-30T09:37:45;98565.34;;;31.79;52.77
11830;BME280;5972;42.134;24.718;2023-08-30T09:40:17;98576.16;;;32.33;51.16
11830;BME280;5972;42.134;24.718;2023-08-30T09:42:44;98569.13;;;33.14;47.68
11830;BME280;5972;42.134;24.718;2023-08-30T09:45:19;98571.22;;;33.73;44.88
11830;BME280;5972;42.134;24.718;2023-08-30T09:47:48;98567.22;;;33.63;46.11
11830;BME280;5972;42.134;24.718;2023-08-30T09:50:17;98561.59;;;33.69;45.05
11830;BME280;5972;42.134;24.718;2023-08-30T09:52:45;98561.28;;;33.07;45.72
11830;BME280;5972;42.134;24.718;2023-08-30T09:55:14;98558.75;;;33.04;46.55
11830;BME280;5972;42.134;24.718;2023-08-30T09:57:41;98560.41;;;33.23;46.19
11830;BME280;5972;42.134;24.718;2023-08-30T10:00:09;98569.00;;;33.36;44.18
11830;BME280;5972;42.134;24.718;2023-08-30T10:02:39;98564.09;;;33.97;42.47
11830;BME280;5972;42.134;24.718;2023-08-30T10:05:09;98569.06;;;34.34;42.56
11830;BME280;5972;42.134;24.718;2023-08-30T10:07:38;98569.66;;;34.70;41.36
11830;BME280;5972;42.134;24.718;2023-08-30T10:10:06;98549.69;;;35.24;39.74
11830;BME280;5972;42.134;24.718;2023-08-30T10:12:33;98549.53;;;35.16;40.08
11830;BME280;5972;42.134;24.718;2023-08-30T10:15:00;98542.31;;;35.53;39.90
11830;BME280;5972;42.134;24.718;2023-08-30T10:17:28;98553.84;;;35.81;38.50
11830;BME280;5972;42.134;24.718;2023-08-30T10:19:59;98556.56;;;36.13;37.89
11830;BME280;5972;42.134;24.718;2023-08-30T10:22:29;98541.75;;;36.25;37.67
11830;BME280;5972;42.134;24.718;2023-08-30T10:24:59;98546.59;;;35.27;38.18
11830;BME280;5972;42.134;24.718;2023-08-30T10:27:29;98545.34;;;35.55;38.10
11830;BME280;5972;42.134;24.718;2023-08-30T10:29:59;98539.53;;;34.03;40.15
11830;BME280;5972;42.134;24.718;2023-08-30T10:32:26;98540.50;;;34.05;40.76
11830;BME280;5972;42.134;24.718;2023-08-30T10:34:52;98532.50;;;34.15;40.38
11830;BME280;5972;42.134;24.718;2023-08-30T10:37:24;98529.06;;;34.65;39.00
11830;BME280;5972;42.134;24.718;2023-08-30T10:39:52;98526.44;;;35.23;37.83
11830;BME280;5972;42.134;24.718;2023-08-30T10:42:22;98533.06;;;35.84;37.07
11830;BME280;5972;42.134;24.718;2023-08-30T10:44:49;98523.09;;;36.09;35.76
11830;BME280;5972;42.134;24.718;2023-08-30T10:47:19;98519.84;;;36.45;34.96
11830;BME280;5972;42.134;24.718;2023-08-30T10:49:48;98521.47;;;35.29;36.25
11830;BME280;5972;42.134;24.718;2023-08-30T10:52:15;98518.56;;;35.80;36.24
11830;BME280;5972;42.134;24.718;2023-08-30T10:54:43;98509.44;;;34.03;36.52
11830;BME280;5972;42.134;24.718;2023-08-30T10:57:13;98493.81;;;33.59;38.04
11830;BME280;5972;42.134;24.718;2023-08-30T11:02:29;98500.72;;;33.58;40.19
11830;BME280;5972;42.134;24.718;2023-08-30T11:04:57;98511.19;;;33.82;38.44
11830;BME280;5972;42.134;24.718;2023-08-30T11:07:25;98524.44;;;33.57;40.43
11830;BME280;5972;42.134;24.718;2023-08-30T11:09:53;98513.53;;;33.78;40.71
11830;BME280;5972;42.134;24.718;2023-08-30T11:12:20;98512.94;;;33.85;39.72
11830;BME280;5972;42.134;24.718;2023-08-30T11:14:47;98509.59;;;33.62;40.24
11830;BME280;5972;42.134;24.718;2023-08-30T11:17:16;98503.53;;;33.28;40.70
11830;BME280;5972;42.134;24.718;2023-08-30T11:19:43;98504.41;;;33.12;40.41
11830;BME280;5972;42.134;24.718;2023-08-30T11:22:10;98503.31;;;33.26;40.39
11830;BME280;5972;42.134;24.718;2023-08-30T11:24:39;98503.06;;;33.24;40.51
11830;BME280;5972;42.134;24.718;2023-08-30T11:27:08;98495.00;;;33.69;39.95
11830;BME280;5972;42.134;24.718;2023-08-30T11:29:35;98489.59;;;33.77;40.74
11830;BME280;5972;42.134;24.718;2023-08-30T11:32:02;98481.25;;;33.41;41.17
11830;BME280;5972;42.134;24.718;2023-08-30T11:34:29;98493.72;;;33.11;41.50
11830;BME280;5972;42.134;24.718;2023-08-30T11:36:55;98483.03;;;33.09;41.94
11830;BME280;5972;42.134;24.718;2023-08-30T11:39:22;98484.50;;;33.21;41.29
11830;BME280;5972;42.134;24.718;2023-08-30T11:41:50;98475.72;;;33.00;42.24
11830;BME280;5972;42.134;24.718;2023-08-30T11:44:19;98468.38;;;33.27;40.56
11830;BME280;5972;42.134;24.718;2023-08-30T11:46:46;98427.31;;;33.00;42.04
11830;BME280;5972;42.134;24.718;2023-08-30T11:49:13;98449.81;;;32.89;41.91
11830;BME280;5972;42.134;24.718;2023-08-30T11:51:40;98467.69;;;33.21;42.96
11830;BME280;5972;42.134;24.718;2023-08-30T11:54:08;98469.09;;;33.58;42.40
11830;BME280;5972;42.134;24.718;2023-08-30T11:56:36;98468.44;;;33.95;40.58
11830;BME280;5972;42.134;24.718;2023-08-30T11:59:03;98461.66;;;33.85;41.13
11830;BME280;5972;42.134;24.718;2023-08-30T12:01:32;98454.13;;;33.98;41.11
11830;BME280;5972;42.134;24.718;2023-08-30T12:04:08;98457.53;;;34.10;41.18
11830;BME280;5972;42.134;24.718;2023-08-30T12:06:35;98457.47;;;33.72;41.56
11830;BME280;5972;42.134;24.718;2023-08-30T12:09:02;98456.28;;;33.62;41.60
11830;BME280;5972;42.134;24.718;2023-08-30T12:11:32;98449.44;;;33.58;41.81
11830;BME280;5972;42.134;24.718;2023-08-30T12:14:01;98443.13;;;34.19;41.06
11830;BME280;5972;42.134;24.718;2023-08-30T12:16:28;98446.38;;;34.79;39.09
11830;BME280;5972;42.134;24.718;2023-08-30T12:19:07;98444.94;;;35.04;37.62
11830;BME280;5972;42.134;24.718;2023-08-30T12:21:39;98438.84;;;34.87;38.55
11830;BME280;5972;42.134;24.718;2023-08-30T12:24:23;98405.47;;;33.90;39.48
11830;BME280;5972;42.134;24.718;2023-08-30T12:26:50;98421.00;;;33.72;40.35
11830;BME280;5972;42.134;24.718;2023-08-30T12:29:16;98426.13;;;33.44;41.78
11830;BME280;5972;42.134;24.718;2023-08-30T12:31:43;98424.84;;;33.45;41.80
11830;BME280;5972;42.134;24.718;2023-08-30T12:34:11;98417.16;;;34.13;40.46
11830;BME280;5972;42.134;24.718;2023-08-30T12:36:38;98425.81;;;34.52;40.53
11830;BME280;5972;42.134;24.718;2023-08-30T12:39:05;98421.84;;;34.61;39.60
11830;BME280;5972;42.134;24.718;2023-08-30T12:41:31;98415.72;;;33.88;41.03
11830;BME280;5972;42.134;24.718;2023-08-30T12:43:59;98412.50;;;34.21;40.02
11830;BME280;5972;42.134;24.718;2023-08-30T12:46:26;98411.78;;;34.34;39.72
11830;BME280;5972;42.134;24.718;2023-08-30T12:48:53;98399.41;;;34.42;40.39
11830;BME280;5972;42.134;24.718;2023-08-30T12:51:21;98398.94;;;34.01;41.51
11830;BME280;5972;42.134;24.718;2023-08-30T12:53:48;98401.31;;;33.97;41.07
11830;BME280;5972;42.134;24.718;2023-08-30T12:56:15;98395.47;;;34.13;40.61
11830;BME280;5972;42.134;24.718;2023-08-30T12:58:41;98386.75;;;33.79;40.76
11830;BME280;5972;42.134;24.718;2023-08-30T13:01:08;98383.53;;;34.45;39.79